createdAt,value
2016-08-29T00:00:52.939Z,0
2016-08-29T00:01:52.320Z,0
2016-08-29T00:02:52.322Z,0
2016-08-29T00:03:53.023Z,0
2016-08-29T00:04:53.009Z,0
2016-08-29T00:05:52.291Z,0
2016-08-29T00:06:52.291Z,0
2016-08-29T00:07:52.325Z,0
2016-08-29T00:08:52.268Z,0
2016-08-29T00:09:52.308Z,0
2016-08-29T00:10:52.954Z,0
2016-08-29T00:11:52.241Z,0
2016-08-29T00:12:52.248Z,0
2016-08-29T00:13:52.224Z,0
2016-08-29T00:14:52.213Z,0
2016-08-29T00:15:52.925Z,0
2016-08-29T00:16:52.197Z,0
2016-08-29T00:17:52.947Z,0
2016-08-29T00:18:52.186Z,0
2016-08-29T00:19:52.175Z,0
2016-08-29T00:20:52.878Z,0
2016-08-29T00:21:53.582Z,0
2016-08-29T00:22:52.152Z,0
2016-08-29T00:23:52.140Z,0
2016-08-29T00:24:52.136Z,0
2016-08-29T00:25:52.122Z,0
2016-08-29T00:26:52.822Z,0
2016-08-29T00:27:52.110Z,0
2016-08-29T00:28:52.815Z,0
2016-08-29T00:29:53.505Z,0
2016-08-29T00:30:52.085Z,0
2016-08-29T00:31:52.073Z,0
2016-08-29T00:32:52.780Z,0
2016-08-29T00:33:52.063Z,0
2016-08-29T00:34:52.048Z,0
2016-08-29T00:35:52.042Z,0
2016-08-29T00:36:52.741Z,0
2016-08-29T00:37:52.037Z,0
2016-08-29T00:38:52.729Z,0
2016-08-29T00:39:52.714Z,0
2016-08-29T00:40:53.419Z,0
2016-08-29T00:41:52.003Z,0
2016-08-29T00:42:51.977Z,0
2016-08-29T00:43:51.986Z,0
2016-08-29T00:44:51.963Z,0
2016-08-29T00:45:51.955Z,0
2016-08-29T00:46:51.959Z,0
2016-08-29T00:47:53.355Z,0
2016-08-29T00:48:51.927Z,0
2016-08-29T00:49:52.644Z,0
2016-08-29T00:50:51.914Z,0
2016-08-29T00:51:51.906Z,0
2016-08-29T00:52:51.901Z,0
2016-08-29T00:53:51.890Z,0
2016-08-29T00:54:52.589Z,0
2016-08-29T00:55:51.876Z,0
2016-08-29T00:56:52.569Z,0
2016-08-29T00:57:51.852Z,0
2016-08-29T00:58:52.560Z,0
2016-08-29T00:59:52.596Z,0
2016-08-29T01:00:51.832Z,0
2016-08-29T01:01:52.529Z,0
2016-08-29T01:02:51.811Z,0
2016-08-29T01:03:51.807Z,0
2016-08-29T01:04:51.800Z,0
2016-08-29T01:05:51.790Z,0
2016-08-29T01:06:51.778Z,0
2016-08-29T01:07:52.487Z,0
2016-08-29T01:08:51.763Z,0
2016-08-29T01:09:52.460Z,0
2016-08-29T01:10:51.752Z,0
2016-08-29T01:11:51.739Z,0
2016-08-29T01:12:51.730Z,0
2016-08-29T01:13:53.140Z,0
2016-08-29T01:14:51.711Z,0
2016-08-29T01:15:52.417Z,0
2016-08-29T01:16:51.700Z,0
2016-08-29T01:17:51.686Z,0
2016-08-29T01:18:51.677Z,0
2016-08-29T01:19:51.668Z,0
2016-08-29T01:20:51.670Z,0
2016-08-29T01:21:51.650Z,0
2016-08-29T01:22:51.640Z,0
2016-08-29T01:23:51.637Z,0
2016-08-29T01:24:52.331Z,0
2016-08-29T01:25:51.612Z,0
2016-08-29T01:26:51.612Z,0
2016-08-29T01:27:51.607Z,0
2016-08-29T01:28:51.587Z,0
2016-08-29T01:29:51.596Z,0
2016-08-29T01:30:51.586Z,0
2016-08-29T01:31:51.565Z,0
2016-08-29T01:32:51.555Z,0
2016-08-29T01:33:51.557Z,0
2016-08-29T01:34:51.539Z,0
2016-08-29T01:35:51.535Z,0
2016-08-29T01:36:51.521Z,0
2016-08-29T01:37:51.565Z,0
2016-08-29T01:38:51.512Z,0
2016-08-29T01:39:51.499Z,0
2016-08-29T01:40:51.490Z,0
2016-08-29T01:41:51.476Z,0
2016-08-29T01:42:51.470Z,0
2016-08-29T01:43:51.461Z,0
2016-08-29T01:44:51.454Z,0
2016-08-29T01:45:51.449Z,0
2016-08-29T01:46:51.442Z,0
2016-08-29T01:47:51.426Z,0
2016-08-29T01:48:52.127Z,0
2016-08-29T01:49:52.119Z,0
2016-08-29T01:50:51.395Z,0
2016-08-29T01:51:51.400Z,0
2016-08-29T01:52:52.087Z,0
2016-08-29T01:53:51.375Z,0
2016-08-29T01:54:51.375Z,0
2016-08-29T01:55:51.357Z,0
2016-08-29T01:56:52.758Z,0
2016-08-29T01:57:51.338Z,0
2016-08-29T01:58:52.042Z,0
2016-08-29T01:59:52.084Z,0
2016-08-29T02:00:51.331Z,0
2016-08-29T02:01:51.304Z,0
2016-08-29T02:02:51.297Z,0
2016-08-29T02:03:51.292Z,0
2016-08-29T02:04:51.279Z,0
2016-08-29T02:05:52.694Z,0
2016-08-29T02:06:51.259Z,0
2016-08-29T02:07:51.251Z,0
2016-08-29T02:08:51.250Z,0
2016-08-29T02:09:51.942Z,0
2016-08-29T02:10:52.640Z,0
2016-08-29T02:11:51.221Z,0
2016-08-29T02:12:51.204Z,0
2016-08-29T02:13:51.217Z,0
2016-08-29T02:14:51.187Z,0
2016-08-29T02:15:51.195Z,0
2016-08-29T02:16:51.170Z,0
2016-08-29T02:17:51.881Z,0
2016-08-29T02:18:51.865Z,0
2016-08-29T02:19:51.156Z,0
2016-08-29T02:20:51.136Z,0
2016-08-29T02:21:51.851Z,0
2016-08-29T02:22:51.127Z,0
2016-08-29T02:23:51.856Z,0
2016-08-29T02:24:51.101Z,0
2016-08-29T02:25:51.095Z,0
2016-08-29T02:26:51.133Z,0
2016-08-29T02:27:51.076Z,0
2016-08-29T02:28:51.067Z,0
2016-08-29T02:29:51.075Z,0
2016-08-29T02:30:51.043Z,0
2016-08-29T02:31:51.057Z,0
2016-08-29T02:32:51.736Z,0
2016-08-29T02:33:51.743Z,0
2016-08-29T02:34:52.428Z,0
2016-08-29T02:35:52.419Z,0
2016-08-29T02:36:50.989Z,0
2016-08-29T02:37:51.712Z,0
2016-08-29T02:38:50.973Z,0
2016-08-29T02:39:50.969Z,0
2016-08-29T02:40:51.028Z,0
2016-08-29T02:41:50.961Z,0
2016-08-29T02:42:50.937Z,0
2016-08-29T02:43:52.348Z,0
2016-08-29T02:44:50.920Z,0
2016-08-29T02:45:50.912Z,0
2016-08-29T02:46:51.613Z,0
2016-08-29T02:47:51.599Z,0
2016-08-29T02:48:50.884Z,0
2016-08-29T02:49:50.891Z,0
2016-08-29T02:50:50.871Z,0
2016-08-29T02:51:51.563Z,0
2016-08-29T02:52:50.855Z,0
2016-08-29T02:53:51.563Z,0
2016-08-29T02:54:51.536Z,0
2016-08-29T02:55:50.832Z,0
2016-08-29T02:56:50.827Z,0
2016-08-29T02:57:50.802Z,0
2016-08-29T02:58:52.343Z,0
2016-08-29T02:59:51.514Z,0
2016-08-29T03:00:50.785Z,0
2016-08-29T03:01:52.192Z,0
2016-08-29T03:02:50.764Z,0
2016-08-29T03:03:50.761Z,0
2016-08-29T03:04:50.747Z,0
2016-08-29T03:05:50.746Z,0
2016-08-29T03:06:51.443Z,0
2016-08-29T03:07:50.741Z,0
2016-08-29T03:08:50.714Z,0
2016-08-29T03:09:50.755Z,0
2016-08-29T03:10:50.695Z,0
2016-08-29T03:11:51.394Z,0
2016-08-29T03:12:50.716Z,0
2016-08-29T03:13:50.667Z,0
2016-08-29T03:14:50.676Z,0
2016-08-29T03:15:50.662Z,0
2016-08-29T03:16:51.351Z,0
2016-08-29T03:17:51.337Z,0
2016-08-29T03:18:50.628Z,0
2016-08-29T03:19:50.677Z,0
2016-08-29T03:20:50.605Z,0
2016-08-29T03:21:50.611Z,0
2016-08-29T03:22:52.002Z,0
2016-08-29T03:23:50.578Z,0
2016-08-29T03:24:50.581Z,0
2016-08-29T03:25:50.567Z,0
2016-08-29T03:26:50.555Z,0
2016-08-29T03:27:51.278Z,0
2016-08-29T03:28:51.249Z,0
2016-08-29T03:29:50.533Z,0
2016-08-29T03:30:50.552Z,0
2016-08-29T03:31:50.513Z,0
2016-08-29T03:32:50.520Z,0
2016-08-29T03:33:51.912Z,0
2016-08-29T03:34:51.193Z,0
2016-08-29T03:35:50.481Z,0
2016-08-29T03:36:50.470Z,0
2016-08-29T03:37:50.467Z,0
2016-08-29T03:38:50.451Z,0
2016-08-29T03:39:50.449Z,0
2016-08-29T03:40:50.434Z,0
2016-08-29T03:41:50.427Z,0
2016-08-29T03:42:50.417Z,0
2016-08-29T03:43:51.120Z,0
2016-08-29T03:44:51.108Z,0
2016-08-29T03:45:51.101Z,0
2016-08-29T03:46:51.093Z,0
2016-08-29T03:47:51.094Z,0
2016-08-29T03:48:51.076Z,0
2016-08-29T03:49:50.362Z,0
2016-08-29T03:50:50.348Z,0
2016-08-29T03:51:50.348Z,0
2016-08-29T03:52:51.750Z,0
2016-08-29T03:53:50.321Z,0
2016-08-29T03:54:50.321Z,0
2016-08-29T03:55:51.027Z,0
2016-08-29T03:56:51.007Z,0
2016-08-29T03:57:51.016Z,0
2016-08-29T03:58:50.986Z,0
2016-08-29T03:59:50.269Z,0
2016-08-29T04:00:50.260Z,0
2016-08-29T04:01:50.460Z,0
2016-08-29T04:02:50.248Z,0
2016-08-29T04:03:50.938Z,0
2016-08-29T04:04:50.939Z,0
2016-08-29T04:05:50.942Z,0
2016-08-29T04:06:51.632Z,0
2016-08-29T04:07:50.930Z,0
2016-08-29T04:08:50.204Z,0
2016-08-29T04:09:51.602Z,4
2016-08-29T04:10:50.182Z,4
2016-08-29T04:11:50.927Z,0
2016-08-29T04:12:50.871Z,4
2016-08-29T04:13:50.860Z,4
2016-08-29T04:14:50.144Z,4
2016-08-29T04:15:50.846Z,4
2016-08-29T04:16:50.135Z,8
2016-08-29T04:17:50.120Z,8
2016-08-29T04:18:50.833Z,12
2016-08-29T04:19:50.099Z,12
2016-08-29T04:20:50.800Z,12
2016-08-29T04:21:50.081Z,16
2016-08-29T04:22:50.078Z,16
2016-08-29T04:23:50.784Z,20
2016-08-29T04:24:51.541Z,20
2016-08-29T04:25:50.765Z,24
2016-08-29T04:26:50.752Z,24
2016-08-29T04:27:51.448Z,36
2016-08-29T04:28:50.026Z,40
2016-08-29T04:29:50.719Z,48
2016-08-29T04:30:50.001Z,52
2016-08-29T04:31:49.997Z,60
2016-08-29T04:32:50.699Z,68
2016-08-29T04:33:50.690Z,68
2016-08-29T04:34:49.970Z,68
2016-08-29T04:35:50.690Z,68
2016-08-29T04:36:49.953Z,64
2016-08-29T04:37:50.721Z,80
2016-08-29T04:38:51.384Z,100
2016-08-29T04:39:49.935Z,128
2016-08-29T04:40:50.623Z,140
2016-08-29T04:41:49.915Z,152
2016-08-29T04:42:49.900Z,160
2016-08-29T04:43:49.890Z,176
2016-08-29T04:44:49.881Z,188
2016-08-29T04:45:50.583Z,192
2016-08-29T04:46:49.867Z,188
2016-08-29T04:47:49.900Z,180
2016-08-29T04:48:49.868Z,168
2016-08-29T04:49:49.857Z,192
2016-08-29T04:50:49.839Z,252
2016-08-29T04:51:50.539Z,292
2016-08-29T04:52:49.828Z,336
2016-08-29T04:53:49.803Z,368
2016-08-29T04:54:49.793Z,396
2016-08-29T04:55:51.207Z,420
2016-08-29T04:56:50.495Z,448
2016-08-29T04:57:50.481Z,468
2016-08-29T04:58:50.481Z,488
2016-08-29T04:59:50.473Z,520
2016-08-29T05:00:50.845Z,544
2016-08-29T05:01:49.755Z,548
2016-08-29T05:02:49.777Z,548
2016-08-29T05:03:49.771Z,560
2016-08-29T05:04:50.417Z,584
2016-08-29T05:05:49.700Z,608
2016-08-29T05:06:50.456Z,652
2016-08-29T05:07:49.685Z,680
2016-08-29T05:08:49.672Z,700
2016-08-29T05:09:50.386Z,724
2016-08-29T05:10:49.675Z,756
2016-08-29T05:11:50.365Z,796
2016-08-29T05:12:50.352Z,828
2016-08-29T05:13:49.638Z,824
2016-08-29T05:14:51.059Z,804
2016-08-29T05:15:49.610Z,760
2016-08-29T05:16:49.608Z,744
2016-08-29T05:17:50.307Z,768
2016-08-29T05:18:49.590Z,840
2016-08-29T05:19:49.579Z,884
2016-08-29T05:20:49.573Z,968
2016-08-29T05:21:49.563Z,1072
2016-08-29T05:22:49.552Z,1148
2016-08-29T05:23:50.263Z,972
2016-08-29T05:24:49.536Z,772
2016-08-29T05:25:49.536Z,780
2016-08-29T05:26:50.229Z,856
2016-08-29T05:27:49.570Z,1020
2016-08-29T05:28:49.503Z,1044
2016-08-29T05:29:49.494Z,1088
2016-08-29T05:30:49.488Z,1132
2016-08-29T05:31:49.484Z,1080
2016-08-29T05:32:49.475Z,1016
2016-08-29T05:33:50.884Z,1044
2016-08-29T05:34:50.158Z,1224
2016-08-29T05:35:50.155Z,1540
2016-08-29T05:36:49.432Z,1532
2016-08-29T05:37:50.137Z,840
2016-08-29T05:38:50.120Z,508
2016-08-29T05:39:50.112Z,364
2016-08-29T05:40:49.400Z,276
2016-08-29T05:41:49.395Z,356
2016-08-29T05:42:50.142Z,332
2016-08-29T05:43:49.439Z,360
2016-08-29T05:44:50.074Z,404
2016-08-29T05:45:50.064Z,408
2016-08-29T05:46:49.346Z,364
2016-08-29T05:47:50.088Z,360
2016-08-29T05:48:50.069Z,396
2016-08-29T05:49:50.057Z,388
2016-08-29T05:50:50.036Z,420
2016-08-29T05:51:49.315Z,436
2016-08-29T05:52:50.010Z,512
2016-08-29T05:53:49.992Z,456
2016-08-29T05:54:49.286Z,544
2016-08-29T05:55:49.270Z,576
2016-08-29T05:56:49.263Z,592
2016-08-29T05:57:49.967Z,724
2016-08-29T05:58:49.245Z,708
2016-08-29T05:59:49.247Z,700
2016-08-29T06:00:49.987Z,748
2016-08-29T06:01:50.160Z,860
2016-08-29T06:02:49.922Z,780
2016-08-29T06:03:49.908Z,744
2016-08-29T06:04:50.613Z,776
2016-08-29T06:05:49.904Z,748
2016-08-29T06:06:49.878Z,728
2016-08-29T06:07:49.884Z,768
2016-08-29T06:08:49.158Z,824
2016-08-29T06:09:50.567Z,736
2016-08-29T06:10:49.135Z,716
2016-08-29T06:11:50.549Z,884
2016-08-29T06:12:49.841Z,1116
2016-08-29T06:13:49.110Z,1196
2016-08-29T06:14:49.109Z,1148
2016-08-29T06:15:49.819Z,1140
2016-08-29T06:16:50.505Z,1212
2016-08-29T06:17:49.795Z,1220
2016-08-29T06:18:49.091Z,1156
2016-08-29T06:19:49.100Z,1216
2016-08-29T06:20:49.110Z,1228
2016-08-29T06:21:50.469Z,1196
2016-08-29T06:22:49.042Z,996
2016-08-29T06:23:49.028Z,832
2016-08-29T06:24:49.731Z,776
2016-08-29T06:25:49.723Z,844
2016-08-29T06:26:49.709Z,888
2016-08-29T06:27:48.995Z,992
2016-08-29T06:28:49.695Z,988
2016-08-29T06:29:48.978Z,1132
2016-08-29T06:30:49.688Z,1124
2016-08-29T06:31:48.963Z,944
2016-08-29T06:32:49.669Z,764
2016-08-29T06:33:48.949Z,720
2016-08-29T06:34:48.937Z,788
2016-08-29T06:35:51.639Z,968
2016-08-29T06:36:48.927Z,1244
2016-08-29T06:37:48.914Z,1572
2016-08-29T06:38:48.908Z,1724
2016-08-29T06:39:49.609Z,1492
2016-08-29T06:40:49.611Z,1244
2016-08-29T06:41:49.586Z,1244
2016-08-29T06:42:49.581Z,1308
2016-08-29T06:43:48.877Z,1292
2016-08-29T06:44:48.862Z,1328
2016-08-29T06:45:48.845Z,1440
2016-08-29T06:46:48.845Z,1556
2016-08-29T06:47:48.883Z,1588
2016-08-29T06:48:49.536Z,1564
2016-08-29T06:49:49.519Z,1492
2016-08-29T06:50:48.802Z,1460
2016-08-29T06:51:48.795Z,1492
2016-08-29T06:52:48.815Z,1480
2016-08-29T06:53:49.487Z,1324
2016-08-29T06:54:49.494Z,1092
2016-08-29T06:55:49.484Z,1048
2016-08-29T06:56:49.459Z,1064
2016-08-29T06:57:49.462Z,1164
2016-08-29T06:58:49.458Z,1128
2016-08-29T06:59:48.730Z,1128
2016-08-29T07:00:50.859Z,1236
2016-08-29T07:01:48.714Z,1432
2016-08-29T07:02:49.406Z,1552
2016-08-29T07:03:48.691Z,1596
2016-08-29T07:04:49.405Z,1604
2016-08-29T07:05:48.676Z,1716
2016-08-29T07:06:48.672Z,1692
2016-08-29T07:07:48.657Z,1540
2016-08-29T07:08:49.402Z,1476
2016-08-29T07:09:49.371Z,1568
2016-08-29T07:10:48.631Z,1836
2016-08-29T07:11:49.330Z,2164
2016-08-29T07:12:50.046Z,2512
2016-08-29T07:13:48.606Z,2656
2016-08-29T07:14:49.315Z,2376
2016-08-29T07:15:49.303Z,2148
2016-08-29T07:16:48.582Z,2332
2016-08-29T07:17:49.285Z,2644
2016-08-29T07:18:48.569Z,2884
2016-08-29T07:19:49.268Z,2932
2016-08-29T07:20:48.550Z,2976
2016-08-29T07:21:48.542Z,2808
2016-08-29T07:22:49.240Z,2588
2016-08-29T07:23:48.540Z,2656
2016-08-29T07:24:49.935Z,2988
2016-08-29T07:25:49.223Z,3188
2016-08-29T07:26:48.504Z,3304
2016-08-29T07:27:48.485Z,3412
2016-08-29T07:28:48.488Z,3504
2016-08-29T07:29:48.500Z,3224
2016-08-29T07:30:48.469Z,2928
2016-08-29T07:31:48.455Z,2708
2016-08-29T07:32:48.450Z,2596
2016-08-29T07:33:49.165Z,2548
2016-08-29T07:34:48.427Z,2548
2016-08-29T07:35:48.428Z,2364
2016-08-29T07:36:48.406Z,2152
2016-08-29T07:37:48.427Z,2304
2016-08-29T07:38:48.392Z,2580
2016-08-29T07:39:48.395Z,2872
2016-08-29T07:40:49.153Z,3104
2016-08-29T07:41:50.680Z,3296
2016-08-29T07:42:49.086Z,3512
2016-08-29T07:43:49.178Z,3664
2016-08-29T07:44:48.338Z,4140
2016-08-29T07:45:48.341Z,4636
2016-08-29T07:46:48.348Z,5152
2016-08-29T07:47:49.959Z,5460
2016-08-29T07:48:49.726Z,5476
2016-08-29T07:49:48.297Z,5308
2016-08-29T07:50:48.323Z,5024
2016-08-29T07:51:48.291Z,4688
2016-08-29T07:52:48.277Z,4480
2016-08-29T07:53:48.987Z,4068
2016-08-29T07:54:48.266Z,3960
2016-08-29T07:55:48.271Z,4652
2016-08-29T07:56:49.656Z,4652
2016-08-29T07:57:48.977Z,4820
2016-08-29T07:58:49.154Z,4960
2016-08-29T07:59:48.217Z,4396
2016-08-29T08:00:48.922Z,4300
2016-08-29T08:01:49.821Z,3708
2016-08-29T08:02:48.200Z,3456
2016-08-29T08:03:48.186Z,3660
2016-08-29T08:04:48.191Z,4672
2016-08-29T08:05:49.595Z,5892
2016-08-29T08:06:49.590Z,6652
2016-08-29T08:07:48.874Z,7440
2016-08-29T08:08:48.137Z,7972
2016-08-29T08:09:48.144Z,7828
2016-08-29T08:10:48.841Z,7024
2016-08-29T08:11:49.535Z,6164
2016-08-29T08:12:48.123Z,5908
2016-08-29T08:13:48.109Z,5624
2016-08-29T08:14:48.801Z,5496
2016-08-29T08:15:49.519Z,5640
2016-08-29T08:16:48.084Z,6036
2016-08-29T08:17:49.533Z,6564
2016-08-29T08:18:49.494Z,7128
2016-08-29T08:19:48.772Z,7420
2016-08-29T08:20:48.044Z,7728
2016-08-29T08:21:48.827Z,8088
2016-08-29T08:22:48.750Z,7884
2016-08-29T08:23:48.039Z,7144
2016-08-29T08:24:48.031Z,7468
2016-08-29T08:25:49.461Z,8644
2016-08-29T08:26:48.022Z,9488
2016-08-29T08:27:48.154Z,9616
2016-08-29T08:28:48.710Z,9340
2016-08-29T08:29:48.686Z,8924
2016-08-29T08:30:48.676Z,8100
2016-08-29T08:31:49.378Z,8124
2016-08-29T08:32:47.966Z,7972
2016-08-29T08:33:48.662Z,8900
2016-08-29T08:34:48.661Z,8012
2016-08-29T08:35:48.450Z,7320
2016-08-29T08:36:47.932Z,7528
2016-08-29T08:37:48.653Z,7820
2016-08-29T08:38:48.623Z,8460
2016-08-29T08:39:48.661Z,8404
2016-08-29T08:40:47.933Z,9772
2016-08-29T08:41:47.908Z,10600
2016-08-29T08:42:48.593Z,11176
2016-08-29T08:43:47.889Z,10736
2016-08-29T08:44:47.870Z,10084
2016-08-29T08:45:48.589Z,9900
2016-08-29T08:46:47.857Z,10704
2016-08-29T08:47:47.865Z,9812
2016-08-29T08:48:47.865Z,9000
2016-08-29T08:49:48.559Z,9868
2016-08-29T08:50:47.833Z,9792
2016-08-29T08:51:47.819Z,9104
2016-08-29T08:52:48.517Z,8388
2016-08-29T08:53:49.226Z,7936
2016-08-29T08:54:48.505Z,7780
2016-08-29T08:55:47.791Z,6740
2016-08-29T08:56:47.784Z,5560
2016-08-29T08:57:48.488Z,4800
2016-08-29T08:58:49.193Z,4692
2016-08-29T08:59:48.467Z,5460
2016-08-29T09:00:47.771Z,6844
2016-08-29T09:01:47.764Z,7960
2016-08-29T09:02:49.159Z,9592
2016-08-29T09:03:47.733Z,11596
2016-08-29T09:04:48.459Z,12872
2016-08-29T09:05:48.440Z,12072
2016-08-29T09:06:48.426Z,12232
2016-08-29T09:07:47.704Z,10380
2016-08-29T09:08:48.400Z,9156
2016-08-29T09:09:48.453Z,8864
2016-08-29T09:10:47.686Z,9620
2016-08-29T09:11:48.381Z,9844
2016-08-29T09:12:47.676Z,10164
2016-08-29T09:13:47.672Z,11484
2016-08-29T09:14:47.660Z,11232
2016-08-29T09:15:48.367Z,9908
2016-08-29T09:16:48.365Z,8188
2016-08-29T09:17:48.345Z,7900
2016-08-29T09:18:47.627Z,8624
2016-08-29T09:19:48.333Z,8788
2016-08-29T09:20:47.639Z,8048
2016-08-29T09:21:47.616Z,6420
2016-08-29T09:22:49.028Z,5444
2016-08-29T09:23:47.598Z,5236
2016-08-29T09:24:47.591Z,5596
2016-08-29T09:25:49.026Z,5564
2016-08-29T09:26:49.003Z,6188
2016-08-29T09:27:48.337Z,7012
2016-08-29T09:28:48.273Z,7328
2016-08-29T09:29:47.562Z,7384
2016-08-29T09:30:47.564Z,6696
2016-08-29T09:31:47.580Z,6092
2016-08-29T09:32:47.545Z,6120
2016-08-29T09:33:47.542Z,6676
2016-08-29T09:34:47.540Z,7204
2016-08-29T09:35:47.522Z,8116
2016-08-29T09:36:48.224Z,9448
2016-08-29T09:37:47.524Z,11028
2016-08-29T09:38:47.510Z,12928
2016-08-29T09:39:47.488Z,14384
2016-08-29T09:40:47.482Z,16928
2016-08-29T09:41:48.894Z,17824
2016-08-29T09:42:47.468Z,18240
2016-08-29T09:43:47.467Z,18016
2016-08-29T09:44:47.461Z,18400
2016-08-29T09:45:48.165Z,17696
2016-08-29T09:46:47.452Z,14928
2016-08-29T09:47:47.472Z,11724
2016-08-29T09:48:47.433Z,9408
2016-08-29T09:49:47.433Z,9048
2016-08-29T09:50:47.427Z,8892
2016-08-29T09:51:47.410Z,8708
2016-08-29T09:52:47.405Z,8616
2016-08-29T09:53:47.403Z,10120
2016-08-29T09:54:47.394Z,12364
2016-08-29T09:55:48.102Z,12056
2016-08-29T09:56:48.112Z,10624
2016-08-29T09:57:48.094Z,9716
2016-08-29T09:58:47.384Z,9628
2016-08-29T09:59:47.364Z,9348
2016-08-29T10:00:48.784Z,9296
2016-08-29T10:01:47.568Z,10232
2016-08-29T10:02:47.345Z,12416
2016-08-29T10:03:48.058Z,15420
2016-08-29T10:04:48.037Z,18176
2016-08-29T10:05:47.327Z,17632
2016-08-29T10:06:47.327Z,18176
2016-08-29T10:07:47.310Z,16476
2016-08-29T10:08:48.024Z,16112
2016-08-29T10:09:48.017Z,15372
2016-08-29T10:10:48.015Z,14728
2016-08-29T10:11:48.712Z,14200
2016-08-29T10:12:47.288Z,14020
2016-08-29T10:13:47.285Z,14968
2016-08-29T10:14:47.287Z,17408
2016-08-29T10:15:47.274Z,17280
2016-08-29T10:16:47.258Z,17824
2016-08-29T10:17:47.967Z,17408
2016-08-29T10:18:47.249Z,15808
2016-08-29T10:19:47.253Z,15676
2016-08-29T10:20:47.950Z,15440
2016-08-29T10:21:47.943Z,15144
2016-08-29T10:22:47.232Z,13716
2016-08-29T10:23:47.929Z,11628
2016-08-29T10:24:47.216Z,12392
2016-08-29T10:25:47.205Z,16960
2016-08-29T10:26:47.205Z,21088
2016-08-29T10:27:47.202Z,17632
2016-08-29T10:28:47.195Z,13948
2016-08-29T10:29:47.896Z,12556
2016-08-29T10:30:47.179Z,12764
2016-08-29T10:31:47.902Z,13796
2016-08-29T10:32:47.219Z,14444
2016-08-29T10:33:47.212Z,14996
2016-08-29T10:34:47.159Z,12828
2016-08-29T10:35:48.666Z,14224
2016-08-29T10:36:47.143Z,14432
2016-08-29T10:37:48.556Z,14480
2016-08-29T10:38:47.143Z,13780
2016-08-29T10:39:47.134Z,14676
2016-08-29T10:40:47.846Z,14312
2016-08-29T10:41:47.121Z,14104
2016-08-29T10:42:47.828Z,14356
2016-08-29T10:43:47.107Z,13956
2016-08-29T10:44:47.808Z,16952
2016-08-29T10:45:47.092Z,17856
2016-08-29T10:46:47.088Z,16204
2016-08-29T10:47:47.790Z,15328
2016-08-29T10:48:47.084Z,14688
2016-08-29T10:49:47.072Z,17696
2016-08-29T10:50:47.067Z,18208
2016-08-29T10:51:47.775Z,20096
2016-08-29T10:52:47.774Z,22848
2016-08-29T10:53:47.046Z,17056
2016-08-29T10:54:47.059Z,12980
2016-08-29T10:55:47.754Z,11520
2016-08-29T10:56:47.034Z,10024
2016-08-29T10:57:47.042Z,10172
2016-08-29T10:58:47.035Z,13700
2016-08-29T10:59:47.035Z,27520
2016-08-29T11:00:47.432Z,23392
2016-08-29T11:01:47.015Z,49216
2016-08-29T11:02:47.767Z,17216
2016-08-29T11:03:47.706Z,22176
2016-08-29T11:04:47.719Z,21888
2016-08-29T11:05:47.019Z,17120
2016-08-29T11:06:47.025Z,11860
2016-08-29T11:07:47.913Z,16800
2016-08-29T11:08:46.991Z,26240
2016-08-29T11:09:47.679Z,25248
2016-08-29T11:10:46.974Z,14248
2016-08-29T11:11:48.397Z,10480
2016-08-29T11:12:47.666Z,10420
2016-08-29T11:13:47.663Z,11120
2016-08-29T11:14:47.668Z,11832
2016-08-29T11:15:48.359Z,12864
2016-08-29T11:16:47.651Z,12460
2016-08-29T11:17:47.649Z,8784
2016-08-29T11:18:47.645Z,6724
2016-08-29T11:19:46.916Z,5376
2016-08-29T11:20:47.634Z,4724
2016-08-29T11:21:47.621Z,4364
2016-08-29T11:22:46.927Z,3992
2016-08-29T11:23:46.900Z,3660
2016-08-29T11:24:46.955Z,3424
2016-08-29T11:25:47.601Z,3180
2016-08-29T11:26:46.905Z,3040
2016-08-29T11:27:47.587Z,3032
2016-08-29T11:28:47.651Z,3172
2016-08-29T11:29:47.584Z,3280
2016-08-29T11:30:47.573Z,3376
2016-08-29T11:31:47.570Z,3704
2016-08-29T11:32:46.853Z,4340
2016-08-29T11:33:46.850Z,5232
2016-08-29T11:34:46.845Z,6316
2016-08-29T11:35:46.833Z,7668
2016-08-29T11:36:46.842Z,9244
2016-08-29T11:37:47.528Z,10848
2016-08-29T11:38:46.817Z,12220
2016-08-29T11:39:47.524Z,13580
2016-08-29T11:40:46.804Z,13204
2016-08-29T11:41:46.811Z,10148
2016-08-29T11:42:46.799Z,8164
2016-08-29T11:43:47.530Z,6920
2016-08-29T11:44:46.779Z,6488
2016-08-29T11:45:47.491Z,6680
2016-08-29T11:46:46.791Z,7092
2016-08-29T11:47:47.476Z,7476
2016-08-29T11:48:46.768Z,8344
2016-08-29T11:49:47.462Z,8616
2016-08-29T11:50:46.753Z,9216
2016-08-29T11:51:46.745Z,9340
2016-08-29T11:52:46.741Z,9596
2016-08-29T11:53:47.447Z,10140
2016-08-29T11:54:46.725Z,11060
2016-08-29T11:55:47.423Z,12160
2016-08-29T11:56:46.717Z,12704
2016-08-29T11:57:46.705Z,14176
2016-08-29T11:58:46.711Z,17760
2016-08-29T11:59:46.697Z,28032
2016-08-29T12:00:47.405Z,54496
2016-08-29T12:01:47.094Z,52544
2016-08-29T12:02:46.691Z,30752
2016-08-29T12:03:46.673Z,44736
2016-08-29T12:04:46.671Z,27936
2016-08-29T12:05:46.669Z,22336
2016-08-29T12:06:46.662Z,21856
2016-08-29T12:07:46.660Z,16572
2016-08-29T12:08:47.364Z,14352
2016-08-29T12:09:46.645Z,12916
2016-08-29T12:10:47.358Z,11628
2016-08-29T12:11:46.641Z,10444
2016-08-29T12:12:46.640Z,9244
2016-08-29T12:13:47.341Z,8436
2016-08-29T12:14:46.631Z,8348
2016-08-29T12:15:46.618Z,8788
2016-08-29T12:16:47.327Z,9176
2016-08-29T12:17:47.313Z,9736
2016-08-29T12:18:46.603Z,10608
2016-08-29T12:19:46.650Z,11648
2016-08-29T12:20:46.596Z,13136
2016-08-29T12:21:46.587Z,14784
2016-08-29T12:22:47.299Z,16768
2016-08-29T12:23:47.291Z,19008
2016-08-29T12:24:47.286Z,20512
2016-08-29T12:25:48.006Z,24480
2016-08-29T12:26:46.571Z,29760
2016-08-29T12:27:47.265Z,22336
2016-08-29T12:28:46.554Z,22688
2016-08-29T12:29:46.551Z,14492
2016-08-29T12:30:46.545Z,13012
2016-08-29T12:31:46.540Z,12028
2016-08-29T12:32:47.260Z,12128
2016-08-29T12:33:47.240Z,12504
2016-08-29T12:34:47.942Z,13092
2016-08-29T12:35:47.233Z,13916
2016-08-29T12:36:46.518Z,14524
2016-08-29T12:37:46.520Z,14936
2016-08-29T12:38:46.543Z,15264
2016-08-29T12:39:46.505Z,15732
2016-08-29T12:40:47.204Z,17472
2016-08-29T12:41:46.500Z,20384
2016-08-29T12:42:46.508Z,24192
2016-08-29T12:43:47.189Z,22720
2016-08-29T12:44:46.485Z,19808
2016-08-29T12:45:46.526Z,18816
2016-08-29T12:46:47.173Z,19360
2016-08-29T12:47:46.474Z,18528
2016-08-29T12:48:47.219Z,16800
2016-08-29T12:49:47.159Z,16048
2016-08-29T12:50:46.463Z,17568
2016-08-29T12:51:46.448Z,18112
2016-08-29T12:52:46.439Z,16356
2016-08-29T12:53:47.153Z,15804
2016-08-29T12:54:47.150Z,15204
2016-08-29T12:55:46.436Z,15572
2016-08-29T12:56:46.428Z,19040
2016-08-29T12:57:47.841Z,16128
2016-08-29T12:58:47.852Z,14460
2016-08-29T12:59:47.826Z,13560
2016-08-29T13:00:46.411Z,13672
2016-08-29T13:01:46.402Z,14516
2016-08-29T13:02:46.396Z,15656
2016-08-29T13:03:47.099Z,18400
2016-08-29T13:04:46.386Z,19488
2016-08-29T13:05:46.392Z,19392
2016-08-29T13:06:47.793Z,19712
2016-08-29T13:07:47.077Z,19232
2016-08-29T13:08:47.073Z,18496
2016-08-29T13:09:47.785Z,16672
2016-08-29T13:10:46.363Z,12580
2016-08-29T13:11:47.069Z,10548
2016-08-29T13:12:47.065Z,11028
2016-08-29T13:13:47.055Z,9744
2016-08-29T13:14:46.339Z,11648
2016-08-29T13:15:46.336Z,16168
2016-08-29T13:16:46.382Z,17824
2016-08-29T13:17:47.034Z,24448
2016-08-29T13:18:46.330Z,18336
2016-08-29T13:19:46.321Z,18432
2016-08-29T13:20:47.020Z,18112
2016-08-29T13:21:46.327Z,18528
2016-08-29T13:22:47.020Z,15652
2016-08-29T13:23:47.010Z,15364
2016-08-29T13:24:46.305Z,14256
2016-08-29T13:25:46.352Z,13792
2016-08-29T13:26:46.999Z,12292
2016-08-29T13:27:46.280Z,10868
2016-08-29T13:28:46.275Z,9704
2016-08-29T13:29:46.987Z,9896
2016-08-29T13:30:46.974Z,10768
2016-08-29T13:31:46.280Z,10184
2016-08-29T13:32:46.975Z,10172
2016-08-29T13:33:46.954Z,11080
2016-08-29T13:34:46.246Z,13100
2016-08-29T13:35:46.277Z,14672
2016-08-29T13:36:47.001Z,15332
2016-08-29T13:37:46.937Z,15584
2016-08-29T13:38:46.999Z,15512
2016-08-29T13:39:46.246Z,18112
2016-08-29T13:40:46.223Z,26944
2016-08-29T13:41:46.218Z,83104